sensor_id;sensor_type;location;lat;lon;timestamp;pressure;altitude;pressure_sealevel;temperature;humidity
59063;BME280;44851;45.648;9.004;2023-07-29T00:01:02;98769.41;;;23.28;58.59
59063;BME280;44851;45.648;9.004;2023-07-29T00:03:27;98770.44;;;23.27;58.58
59063;BME280;44851;45.648;9.004;2023-07-29T00:05:55;98764.31;;;23.27;59.02
59063;BME280;44851;45.648;9.004;2023-07-29T00:08:20;98768.66;;;23.21;59.28
59063;BME280;44851;45.648;9.004;2023-07-29T00:10:46;98764.63;;;23.19;58.94
59063;BME280;44851;45.648;9.004;2023-07-29T00:13:11;98759.63;;;23.22;58.97
59063;BME280;44851;45.648;9.004;2023-07-29T00:15:37;98754.47;;;23.27;58.97
59063;BME280;44851;45.648;9.004;2023-07-29T00:18:02;98763.53;;;23.08;59.30
59063;BME280;44851;45.648;9.004;2023-07-29T00:20:28;98761.47;;;23.22;59.18
59063;BME280;44851;45.648;9.004;2023-07-29T00:22:53;98753.97;;;23.19;59.20
59063;BME280;44851;45.648;9.004;2023-07-29T00:25:20;98758.00;;;23.21;59.43
59063;BME280;44851;45.648;9.004;2023-07-29T00:27:46;98751.38;;;23.30;59.04
59063;BME280;44851;45.648;9.004;2023-07-29T00:30:12;98745.28;;;23.11;59.02
59063;BME280;44851;45.648;9.004;2023-07-29T00:32:37;98742.41;;;23.13;59.52
59063;BME280;44851;45.648;9.004;2023-07-29T00:35:03;98740.19;;;23.10;60.05
59063;BME280;44851;45.648;9.004;2023-07-29T00:37:30;98739.69;;;23.01;60.03
59063;BME280;44851;45.648;9.004;2023-07-29T00:39:56;98740.72;;;23.00;60.22
59063;BME280;44851;45.648;9.004;2023-07-29T00:42:21;98734.25;;;22.96;60.30
59063;BME280;44851;45.648;9.004;2023-07-29T00:44:47;98725.31;;;22.91;59.97
59063;BME280;44851;45.648;9.004;2023-07-29T00:47:15;98722.47;;;22.92;60.07
59063;BME280;44851;45.648;9.004;2023-07-29T00:49:42;98720.28;;;23.01;60.08
59063;BME280;44851;45.648;9.004;2023-07-29T00:52:07;98722.13;;;23.00;59.72
59063;BME280;44851;45.648;9.004;2023-07-29T00:54:33;98721.91;;;23.02;59.88
59063;BME280;44851;45.648;9.004;2023-07-29T00:56:58;98734.47;;;22.95;59.87
59063;BME280;44851;45.648;9.004;2023-07-29T00:59:24;98736.84;;;22.84;60.09
59063;BME280;44851;45.648;9.004;2023-07-29T01:01:50;98735.88;;;22.67;60.78
59063;BME280;44851;45.648;9.004;2023-07-29T01:04:16;98729.22;;;22.76;60.38
59063;BME280;44851;45.648;9.004;2023-07-29T01:06:50;98736.06;;;22.84;60.17
59063;BME280;44851;45.648;9.004;2023-07-29T01:11:55;98739.72;;;22.71;60.43
59063;BME280;44851;45.648;9.004;2023-07-29T01:17:11;98740.13;;;22.68;60.66
59063;BME280;44851;45.648;9.004;2023-07-29T01:22:11;98749.00;;;22.62;61.14
59063;BME280;44851;45.648;9.004;2023-07-29T01:24:38;98746.22;;;22.57;61.13
59063;BME280;44851;45.648;9.004;2023-07-29T01:27:04;98753.53;;;22.62;60.90
59063;BME280;44851;45.648;9.004;2023-07-29T01:29:30;98756.22;;;22.73;61.21
59063;BME280;44851;45.648;9.004;2023-07-29T01:32:01;98760.44;;;22.81;60.96
59063;BME280;44851;45.648;9.004;2023-07-29T01:34:41;98757.03;;;22.74;61.22
59063;BME280;44851;45.648;9.004;2023-07-29T01:37:14;98754.88;;;22.82;60.48
59063;BME280;44851;45.648;9.004;2023-07-29T01:39:42;98754.44;;;22.86;60.81
59063;BME280;44851;45.648;9.004;2023-07-29T01:42:10;98753.56;;;22.73;61.07
59063;BME280;44851;45.648;9.004;2023-07-29T01:44:36;98733.06;;;22.62;61.20
59063;BME280;44851;45.648;9.004;2023-07-29T01:47:02;98729.97;;;22.47;61.92
59063;BME280;44851;45.648;9.004;2023-07-29T01:49:27;98724.31;;;22.43;62.15
59063;BME280;44851;45.648;9.004;2023-07-29T01:51:52;98732.41;;;22.48;61.61
59063;BME280;44851;45.648;9.004;2023-07-29T01:54:18;98736.03;;;22.54;61.92
59063;BME280;44851;45.648;9.004;2023-07-29T01:56:43;98737.94;;;22.47;62.30
59063;BME280;44851;45.648;9.004;2023-07-29T01:59:09;98736.31;;;22.46;62.02
59063;BME280;44851;45.648;9.004;2023-07-29T02:01:34;98738.53;;;22.49;61.99
59063;BME280;44851;45.648;9.004;2023-07-29T02:03:59;98734.38;;;22.53;62.43
59063;BME280;44851;45.648;9.004;2023-07-29T02:06:25;98737.50;;;22.50;61.83
59063;BME280;44851;45.648;9.004;2023-07-29T02:08:52;98738.09;;;22.33;62.58
59063;BME280;44851;45.648;9.004;2023-07-29T02:11:18;98745.16;;;22.40;62.16
59063;BME280;44851;45.648;9.004;2023-07-29T02:13:45;98747.03;;;22.39;62.36
59063;BME280;44851;45.648;9.004;2023-07-29T02:16:11;98744.28;;;22.46;62.25
59063;BME280;44851;45.648;9.004;2023-07-29T02:18:36;98745.09;;;22.46;62.33
59063;BME280;44851;45.648;9.004;2023-07-29T02:21:02;98739.84;;;22.40;62.75
59063;BME280;44851;45.648;9.004;2023-07-29T02:23:28;98739.41;;;22.43;62.37
59063;BME280;44851;45.648;9.004;2023-07-29T02:25:53;98742.00;;;22.31;62.68
59063;BME280;44851;45.648;9.004;2023-07-29T02:28:19;98747.53;;;22.29;62.49
59063;BME280;44851;45.648;9.004;2023-07-29T02:30:44;98729.97;;;22.28;63.01
59063;BME280;44851;45.648;9.004;2023-07-29T02:33:10;98736.25;;;22.34;63.03
59063;BME280;44851;45.648;9.004;2023-07-29T02:35:35;98725.53;;;22.41;62.60
59063;BME280;44851;45.648;9.004;2023-07-29T02:38:01;98720.97;;;22.29;62.81
59063;BME280;44851;45.648;9.004;2023-07-29T02:40:26;98726.81;;;22.38;62.57
59063;BME280;44851;45.648;9.004;2023-07-29T02:42:53;98726.72;;;22.26;62.44
59063;BME280;44851;45.648;9.004;2023-07-29T02:45:18;98745.75;;;22.23;62.90
59063;BME280;44851;45.648;9.004;2023-07-29T02:47:44;98732.50;;;22.23;62.93
59063;BME280;44851;45.648;9.004;2023-07-29T02:50:09;98730.72;;;22.17;63.60
59063;BME280;44851;45.648;9.004;2023-07-29T02:52:34;98736.63;;;22.01;63.38
59063;BME280;44851;45.648;9.004;2023-07-29T02:55:00;98726.72;;;21.90;63.42
59063;BME280;44851;45.648;9.004;2023-07-29T02:57:25;98737.34;;;22.08;63.57
59063;BME280;44851;45.648;9.004;2023-07-29T02:59:51;98745.47;;;22.13;63.26
59063;BME280;44851;45.648;9.004;2023-07-29T03:02:16;98742.81;;;22.13;63.21
59063;BME280;44851;45.648;9.004;2023-07-29T03:04:41;98732.34;;;22.18;63.07
59063;BME280;44851;45.648;9.004;2023-07-29T03:07:07;98725.75;;;22.21;62.77
59063;BME280;44851;45.648;9.004;2023-07-29T03:09:32;98725.75;;;22.21;63.05
59063;BME280;44851;45.648;9.004;2023-07-29T03:11:58;98715.22;;;22.14;63.37
59063;BME280;44851;45.648;9.004;2023-07-29T03:14:24;98733.09;;;21.82;64.07
59063;BME280;44851;45.648;9.004;2023-07-29T03:16:50;98729.81;;;21.87;63.84
59063;BME280;44851;45.648;9.004;2023-07-29T03:19:15;98741.03;;;22.07;63.68
59063;BME280;44851;45.648;9.004;2023-07-29T03:21:41;98741.94;;;22.01;63.38
59063;BME280;44851;45.648;9.004;2023-07-29T03:24:06;98749.72;;;21.96;63.39
59063;BME280;44851;45.648;9.004;2023-07-29T03:26:32;98756.19;;;22.00;63.28
59063;BME280;44851;45.648;9.004;2023-07-29T03:28:57;98753.69;;;22.05;63.39
59063;BME280;44851;45.648;9.004;2023-07-29T03:31:23;98751.66;;;22.07;63.10
59063;BME280;44851;45.648;9.004;2023-07-29T03:33:48;98747.31;;;22.13;62.85
59063;BME280;44851;45.648;9.004;2023-07-29T03:36:14;98749.00;;;22.07;63.11
59063;BME280;44851;45.648;9.004;2023-07-29T03:38:40;98747.81;;;21.78;63.85
59063;BME280;44851;45.648;9.004;2023-07-29T03:41:09;98732.03;;;21.83;63.61
59063;BME280;44851;45.648;9.004;2023-07-29T03:43:34;98742.31;;;21.54;64.55
59063;BME280;44851;45.648;9.004;2023-07-29T03:46:00;98729.03;;;21.79;64.36
59063;BME280;44851;45.648;9.004;2023-07-29T03:48:26;98738.16;;;21.90;64.37
59063;BME280;44851;45.648;9.004;2023-07-29T03:50:51;98735.41;;;21.47;65.07
59063;BME280;44851;45.648;9.004;2023-07-29T03:53:16;98734.19;;;21.74;64.26
59063;BME280;44851;45.648;9.004;2023-07-29T03:55:42;98734.06;;;21.63;64.73
59063;BME280;44851;45.648;9.004;2023-07-29T03:58:08;98734.38;;;21.73;64.27
59063;BME280;44851;45.648;9.004;2023-07-29T04:00:33;98745.22;;;21.71;64.63
59063;BME280;44851;45.648;9.004;2023-07-29T04:02:58;98745.38;;;21.76;63.68
59063;BME280;44851;45.648;9.004;2023-07-29T04:05:24;98755.13;;;21.83;63.93
59063;BME280;44851;45.648;9.004;2023-07-29T04:07:49;98759.16;;;21.92;63.69
59063;BME280;44851;45.648;9.004;2023-07-29T04:10:15;98765.38;;;21.79;63.40
59063;BME280;44851;45.648;9.004;2023-07-29T04:12:40;98767.41;;;21.77;63.62
59063;BME280;44851;45.648;9.004;2023-07-29T04:15:06;98769.41;;;21.81;64.17
59063;BME280;44851;45.648;9.004;2023-07-29T04:17:32;98766.75;;;21.81;64.15
59063;BME280;44851;45.648;9.004;2023-07-29T04:19:57;98760.44;;;21.83;64.02
59063;BME280;44851;45.648;9.004;2023-07-29T04:22:22;98774.56;;;21.76;63.43
59063;BME280;44851;45.648;9.004;2023-07-29T04:24:48;98772.25;;;21.87;63.78
59063;BME280;44851;45.648;9.004;2023-07-29T04:27:13;98773.16;;;21.99;63.50
59063;BME280;44851;45.648;9.004;2023-07-29T04:29:39;98767.28;;;21.97;63.42
59063;BME280;44851;45.648;9.004;2023-07-29T04:32:05;98771.84;;;21.90;64.20
59063;BME280;44851;45.648;9.004;2023-07-29T04:34:31;98776.28;;;21.96;63.71
59063;BME280;44851;45.648;9.004;2023-07-29T04:36:57;98771.53;;;21.98;64.25
59063;BME280;44851;45.648;9.004;2023-07-29T04:39:22;98783.34;;;22.02;63.42
59063;BME280;44851;45.648;9.004;2023-07-29T04:41:48;98779.19;;;21.88;63.74
59063;BME280;44851;45.648;9.004;2023-07-29T04:44:13;98776.34;;;21.83;63.88
59063;BME280;44851;45.648;9.004;2023-07-29T04:46:38;98773.91;;;21.81;63.84
59063;BME280;44851;45.648;9.004;2023-07-29T04:49:04;98780.50;;;21.72;63.78
59063;BME280;44851;45.648;9.004;2023-07-29T04:51:29;98775.16;;;21.78;63.65
59063;BME280;44851;45.648;9.004;2023-07-29T04:53:57;98791.28;;;21.77;63.89
59063;BME280;44851;45.648;9.004;2023-07-29T04:56:22;98784.00;;;21.97;63.23
59063;BME280;44851;45.648;9.004;2023-07-29T04:58:47;98785.63;;;21.98;62.89
59063;BME280;44851;45.648;9.004;2023-07-29T05:01:13;98782.47;;;21.83;63.90
59063;BME280;44851;45.648;9.004;2023-07-29T05:03:38;98768.06;;;21.72;63.53
59063;BME280;44851;45.648;9.004;2023-07-29T05:06:05;98764.06;;;21.88;63.28
59063;BME280;44851;45.648;9.004;2023-07-29T05:08:30;98766.84;;;21.75;63.54
59063;BME280;44851;45.648;9.004;2023-07-29T05:10:56;98771.84;;;21.83;63.47
59063;BME280;44851;45.648;9.004;2023-07-29T05:13:22;98783.69;;;21.87;63.64
59063;BME280;44851;45.648;9.004;2023-07-29T05:15:48;98793.88;;;21.84;64.01
59063;BME280;44851;45.648;9.004;2023-07-29T05:18:15;98797.00;;;22.05;63.25
59063;BME280;44851;45.648;9.004;2023-07-29T05:20:40;98799.06;;;22.03;63.40
59063;BME280;44851;45.648;9.004;2023-07-29T05:23:06;98795.03;;;21.94;63.34
59063;BME280;44851;45.648;9.004;2023-07-29T05:25:32;98799.31;;;21.70;64.10
59063;BME280;44851;45.648;9.004;2023-07-29T05:27:57;98794.59;;;21.72;63.82
59063;BME280;44851;45.648;9.004;2023-07-29T05:30:22;98787.63;;;21.53;64.48
59063;BME280;44851;45.648;9.004;2023-07-29T05:32:48;98787.22;;;21.49;65.14
59063;BME280;44851;45.648;9.004;2023-07-29T05:35:13;98783.00;;;21.67;65.31
59063;BME280;44851;45.648;9.004;2023-07-29T05:37:40;98789.31;;;21.41;65.78
59063;BME280;44851;45.648;9.004;2023-07-29T05:40:06;98799.63;;;21.80;64.89
59063;BME280;44851;45.648;9.004;2023-07-29T05:42:32;98798.06;;;21.48;65.63
59063;BME280;44851;45.648;9.004;2023-07-29T05:44:58;98793.88;;;21.90;64.95
59063;BME280;44851;45.648;9.004;2023-07-29T05:47:23;98793.50;;;21.87;64.83
59063;BME280;44851;45.648;9.004;2023-07-29T05:49:49;98786.00;;;22.02;64.84
59063;BME280;44851;45.648;9.004;2023-07-29T05:52:15;98790.13;;;21.98;65.05
59063;BME280;44851;45.648;9.004;2023-07-29T05:54:40;98797.91;;;21.93;64.92
59063;BME280;44851;45.648;9.004;2023-07-29T05:57:08;98795.09;;;22.13;65.86
59063;BME280;44851;45.648;9.004;2023-07-29T05:59:34;98804.91;;;22.30;64.76
59063;BME280;44851;45.648;9.004;2023-07-29T06:01:59;98805.50;;;22.51;64.60
59063;BME280;44851;45.648;9.004;2023-07-29T06:04:25;98806.22;;;22.65;63.76
59063;BME280;44851;45.648;9.004;2023-07-29T06:06:50;98816.03;;;22.64;63.60
59063;BME280;44851;45.648;9.004;2023-07-29T06:09:16;98815.56;;;22.67;63.84
59063;BME280;44851;45.648;9.004;2023-07-29T06:11:41;98816.16;;;22.88;63.96
59063;BME280;44851;45.648;9.004;2023-07-29T06:14:06;98819.31;;;22.96;62.88
59063;BME280;44851;45.648;9.004;2023-07-29T06:16:32;98823.38;;;22.99;63.78
59063;BME280;44851;45.648;9.004;2023-07-29T06:18:57;98815.47;;;23.22;63.01
59063;BME280;44851;45.648;9.004;2023-07-29T06:21:23;98808.69;;;23.26;62.90
59063;BME280;44851;45.648;9.004;2023-07-29T06:23:49;98816.63;;;23.45;61.77
59063;BME280;44851;45.648;9.004;2023-07-29T06:26:14;98822.00;;;23.68;61.53
59063;BME280;44851;45.648;9.004;2023-07-29T06:28:40;98825.16;;;23.88;61.66
59063;BME280;44851;45.648;9.004;2023-07-29T06:31:05;98827.03;;;24.00;60.72
59063;BME280;44851;45.648;9.004;2023-07-29T06:33:30;98824.78;;;23.73;61.43
59063;BME280;44851;45.648;9.004;2023-07-29T06:35:56;98825.19;;;24.12;60.35
59063;BME280;44851;45.648;9.004;2023-07-29T06:38:21;98819.75;;;24.30;59.81
59063;BME280;44851;45.648;9.004;2023-07-29T06:40:50;98830.16;;;24.67;59.65
59063;BME280;44851;45.648;9.004;2023-07-29T06:43:16;98820.75;;;24.64;60.00
59063;BME280;44851;45.648;9.004;2023-07-29T06:45:42;98826.75;;;25.12;58.74
59063;BME280;44851;45.648;9.004;2023-07-29T06:48:07;98829.47;;;25.00;58.51
59063;BME280;44851;45.648;9.004;2023-07-29T06:50:33;98829.34;;;25.35;57.04
59063;BME280;44851;45.648;9.004;2023-07-29T06:52:58;98828.53;;;25.35;58.04
59063;BME280;44851;45.648;9.004;2023-07-29T06:55:24;98827.53;;;25.53;56.62
59063;BME280;44851;45.648;9.004;2023-07-29T06:57:49;98826.38;;;25.49;56.76
59063;BME280;44851;45.648;9.004;2023-07-29T07:00:14;98826.81;;;25.74;55.83
59063;BME280;44851;45.648;9.004;2023-07-29T07:02:41;98838.41;;;25.97;55.47
59063;BME280;44851;45.648;9.004;2023-07-29T07:05:07;98837.91;;;25.83;54.90
59063;BME280;44851;45.648;9.004;2023-07-29T07:07:32;98843.41;;;26.10;54.36
59063;BME280;44851;45.648;9.004;2023-07-29T07:09:58;98843.41;;;26.43;53.55
59063;BME280;44851;45.648;9.004;2023-07-29T07:12:23;98845.22;;;26.82;52.68
59063;BME280;44851;45.648;9.004;2023-07-29T07:14:49;98847.16;;;26.86;52.52
59063;BME280;44851;45.648;9.004;2023-07-29T07:17:14;98837.75;;;26.84;51.13
59063;BME280;44851;45.648;9.004;2023-07-29T07:19:40;98840.22;;;26.46;52.25
59063;BME280;44851;45.648;9.004;2023-07-29T07:22:05;98845.53;;;26.85;51.24
59063;BME280;44851;45.648;9.004;2023-07-29T07:24:30;98841.06;;;26.91;52.01
59063;BME280;44851;45.648;9.004;2023-07-29T07:26:56;98839.69;;;26.88;51.34
59063;BME280;44851;45.648;9.004;2023-07-29T07:29:21;98840.81;;;26.70;51.73
59063;BME280;44851;45.648;9.004;2023-07-29T07:31:52;98835.88;;;27.28;51.33
59063;BME280;44851;45.648;9.004;2023-07-29T07:34:18;98839.34;;;27.29;50.16
59063;BME280;44851;45.648;9.004;2023-07-29T07:36:43;98844.75;;;27.61;49.83
59063;BME280;44851;45.648;9.004;2023-07-29T07:39:09;98836.28;;;27.74;49.16
59063;BME280;44851;45.648;9.004;2023-07-29T07:41:34;98832.22;;;27.98;48.85
59063;BME280;44851;45.648;9.004;2023-07-29T07:44:00;98830.94;;;27.74;49.38
59063;BME280;44851;45.648;9.004;2023-07-29T07:46:25;98822.97;;;27.52;49.64
59063;BME280;44851;45.648;9.004;2023-07-29T07:48:50;98825.38;;;27.54;49.38
59063;BME280;44851;45.648;9.004;2023-07-29T07:51:16;98823.63;;;27.10;50.01
59063;BME280;44851;45.648;9.004;2023-07-29T07:53:41;98824.78;;;27.46;49.21
59063;BME280;44851;45.648;9.004;2023-07-29T07:56:07;98825.53;;;27.69;48.52
59063;BME280;44851;45.648;9.004;2023-07-29T07:58:33;98822.88;;;28.06;49.46
59063;BME280;44851;45.648;9.004;2023-07-29T08:01:06;98818.19;;;27.86;47.59
59063;BME280;44851;45.648;9.004;2023-07-29T08:03:32;98823.94;;;28.05;48.37
59063;BME280;44851;45.648;9.004;2023-07-29T08:05:58;98831.84;;;28.22;47.33
59063;BME280;44851;45.648;9.004;2023-07-29T08:08:27;98827.13;;;28.39;47.14
59063;BME280;44851;45.648;9.004;2023-07-29T08:10:54;98824.50;;;28.54;45.96
59063;BME280;44851;45.648;9.004;2023-07-29T08:13:20;98809.84;;;28.72;45.83
59063;BME280;44851;45.648;9.004;2023-07-29T08:15:51;98807.34;;;28.50;46.36
59063;BME280;44851;45.648;9.004;2023-07-29T08:18:17;98808.59;;;28.95;45.53
59063;BME280;44851;45.648;9.004;2023-07-29T08:20:53;98809.16;;;29.02;44.94
59063;BME280;44851;45.648;9.004;2023-07-29T08:23:20;98810.78;;;29.03;45.15
59063;BME280;44851;45.648;9.004;2023-07-29T08:25:51;98810.56;;;28.52;45.90
59063;BME280;44851;45.648;9.004;2023-07-29T08:28:16;98798.53;;;28.65;45.55
59063;BME280;44851;45.648;9.004;2023-07-29T08:30:42;98802.50;;;29.25;44.99
59063;BME280;44851;45.648;9.004;2023-07-29T08:33:07;98805.22;;;29.30;44.39
59063;BME280;44851;45.648;9.004;2023-07-29T08:35:32;98803.09;;;29.53;43.48
59063;BME280;44851;45.648;9.004;2023-07-29T08:37:58;98802.00;;;29.34;44.07
59063;BME280;44851;45.648;9.004;2023-07-29T08:40:27;98797.75;;;28.65;44.71
59063;BME280;44851;45.648;9.004;2023-07-29T08:42:56;98808.50;;;28.75;44.75
59063;BME280;44851;45.648;9.004;2023-07-29T08:45:24;98813.16;;;28.37;45.88
59063;BME280;44851;45.648;9.004;2023-07-29T08:47:52;98807.22;;;28.25;46.63
59063;BME280;44851;45.648;9.004;2023-07-29T08:50:19;98806.13;;;27.84;48.02
59063;BME280;44851;45.648;9.004;2023-07-29T08:52:46;98795.47;;;28.36;46.63
59063;BME280;44851;45.648;9.004;2023-07-29T08:55:11;98801.44;;;28.53;46.21
59063;BME280;44851;45.648;9.004;2023-07-29T08:57:37;98800.81;;;28.89;45.82
59063;BME280;44851;45.648;9.004;2023-07-29T09:00:03;98798.91;;;28.79;45.64
59063;BME280;44851;45.648;9.004;2023-07-29T09:02:29;98799.66;;;28.74;45.67
59063;BME280;44851;45.648;9.004;2023-07-29T09:04:54;98799.50;;;29.12;45.08
59063;BME280;44851;45.648;9.004;2023-07-29T09:07:20;98792.63;;;29.36;44.32
59063;BME280;44851;45.648;9.004;2023-07-29T09:09:46;98786.41;;;29.56;44.37
59063;BME280;44851;45.648;9.004;2023-07-29T09:12:11;98786.72;;;29.90;43.14
59063;BME280;44851;45.648;9.004;2023-07-29T09:14:37;98790.19;;;29.50;43.16
59063;BME280;44851;45.648;9.004;2023-07-29T09:17:02;98793.66;;;29.71;42.96
59063;BME280;44851;45.648;9.004;2023-07-29T09:19:33;98789.91;;;29.77;42.55
59063;BME280;44851;45.648;9.004;2023-07-29T09:21:58;98783.44;;;30.08;43.16
59063;BME280;44851;45.648;9.004;2023-07-29T09:24:24;98787.50;;;29.35;43.10
59063;BME280;44851;45.648;9.004;2023-07-29T09:26:50;98793.16;;;29.53;42.61
59063;BME280;44851;45.648;9.004;2023-07-29T09:29:15;98783.44;;;29.78;42.78
59063;BME280;44851;45.648;9.004;2023-07-29T09:31:41;98781.84;;;29.87;41.54
59063;BME280;44851;45.648;9.004;2023-07-29T09:34:06;98777.50;;;30.22;42.25
59063;BME280;44851;45.648;9.004;2023-07-29T09:36:33;98775.81;;;30.46;42.02
59063;BME280;44851;45.648;9.004;2023-07-29T09:38:59;98770.06;;;30.68;41.75
59063;BME280;44851;45.648;9.004;2023-07-29T09:41:29;98779.50;;;30.60;40.10
59063;BME280;44851;45.648;9.004;2023-07-29T09:44:02;98775.19;;;30.65;39.97
59063;BME280;44851;45.648;9.004;2023-07-29T09:46:36;98781.88;;;30.72;40.27
59063;BME280;44851;45.648;9.004;2023-07-29T09:49:03;98780.13;;;31.02;39.90
59063;BME280;44851;45.648;9.004;2023-07-29T09:51:28;98778.31;;;30.87;40.11
59063;BME280;44851;45.648;9.004;2023-07-29T09:53:54;98784.16;;;31.04;40.64
59063;BME280;44851;45.648;9.004;2023-07-29T09:56:25;98779.56;;;31.49;39.66
59063;BME280;44851;45.648;9.004;2023-07-29T09:58:52;98775.38;;;31.28;39.61
59063;BME280;44851;45.648;9.004;2023-07-29T10:01:18;98771.63;;;31.24;39.54
59063;BME280;44851;45.648;9.004;2023-07-29T10:03:44;98777.94;;;31.09;38.93
59063;BME280;44851;45.648;9.004;2023-07-29T10:06:10;98777.50;;;31.31;38.80
59063;BME280;44851;45.648;9.004;2023-07-29T10:08:36;98780.56;;;31.53;38.24
59063;BME280;44851;45.648;9.004;2023-07-29T10:11:08;98788.19;;;31.41;39.67
59063;BME280;44851;45.648;9.004;2023-07-29T10:13:35;98783.31;;;31.48;38.99
59063;BME280;44851;45.648;9.004;2023-07-29T10:16:01;98780.94;;;31.76;39.31
59063;BME280;44851;45.648;9.004;2023-07-29T10:18:34;98776.81;;;31.54;39.78
59063;BME280;44851;45.648;9.004;2023-07-29T10:21:00;98778.72;;;30.60;39.72
59063;BME280;44851;45.648;9.004;2023-07-29T10:23:27;98774.66;;;31.17;38.74
59063;BME280;44851;45.648;9.004;2023-07-29T10:26:04;98779.34;;;31.01;40.49
59063;BME280;44851;45.648;9.004;2023-07-29T10:28:31;98774.22;;;30.40;40.54
59063;BME280;44851;45.648;9.004;2023-07-29T10:30:58;98766.94;;;31.00;39.97
59063;BME280;44851;45.648;9.004;2023-07-29T10:33:23;98769.31;;;31.46;39.57
59063;BME280;44851;45.648;9.004;2023-07-29T10:35:49;98775.06;;;31.69;38.64
59063;BME280;44851;45.648;9.004;2023-07-29T10:38:16;98770.84;;;31.57;39.33
59063;BME280;44851;45.648;9.004;2023-07-29T10:40:46;98770.38;;;31.11;39.19
59063;BME280;44851;45.648;9.004;2023-07-29T10:43:12;98767.88;;;30.75;39.16
59063;BME280;44851;45.648;9.004;2023-07-29T10:45:43;98761.34;;;31.31;38.96
59063;BME280;44851;45.648;9.004;2023-07-29T10:48:13;98770.66;;;31.78;38.90
59063;BME280;44851;45.648;9.004;2023-07-29T10:50:38;98769.06;;;31.77;36.54
59063;BME280;44851;45.648;9.004;2023-07-29T10:53:04;98772.16;;;31.26;38.05
59063;BME280;44851;45.648;9.004;2023-07-29T10:55:35;98767.41;;;31.52;39.14
59063;BME280;44851;45.648;9.004;2023-07-29T11:00:34;98779.88;;;32.01;37.40
59063;BME280;44851;45.648;9.004;2023-07-29T11:03:02;98779.56;;;32.07;37.95
59063;BME280;44851;45.648;9.004;2023-07-29T11:05:42;98778.81;;;32.26;37.55
59063;BME280;44851;45.648;9.004;2023-07-29T11:08:27;98779.03;;;32.05;37.26
59063;BME280;44851;45.648;9.004;2023-07-29T11:11:03;98781.31;;;32.46;37.96
59063;BME280;44851;45.648;9.004;2023-07-29T11:13:30;98768.28;;;32.72;37.53
59063;BME280;44851;45.648;9.004;2023-07-29T11:15:57;98776.38;;;32.91;35.61
59063;BME280;44851;45.648;9.004;2023-07-29T11:18:27;98764.84;;;32.66;35.78
59063;BME280;44851;45.648;9.004;2023-07-29T11:20:54;98757.06;;;32.41;35.91
59063;BME280;44851;45.648;9.004;2023-07-29T11:23:19;98752.13;;;32.48;35.66
59063;BME280;44851;45.648;9.004;2023-07-29T11:25:45;98758.22;;;32.78;35.01
59063;BME280;44851;45.648;9.004;2023-07-29T11:28:11;98751.50;;;32.56;35.39
59063;BME280;44851;45.648;9.004;2023-07-29T11:30:39;98750.06;;;32.83;35.01
59063;BME280;44851;45.648;9.004;2023-07-29T11:33:04;98751.47;;;32.99;35.00
59063;BME280;44851;45.648;9.004;2023-07-29T11:35:32;98739.59;;;32.57;35.36
59063;BME280;44851;45.648;9.004;2023-07-29T11:37:57;98735.97;;;32.86;35.23
59063;BME280;44851;45.648;9.004;2023-07-29T11:40:23;98740.56;;;32.85;35.26
59063;BME280;44851;45.648;9.004;2023-07-29T11:42:50;98732.09;;;33.11;34.66
59063;BME280;44851;45.648;9.004;2023-07-29T11:45:16;98736.06;;;33.00;34.63
59063;BME280;44851;45.648;9.004;2023-07-29T11:47:42;98742.53;;;33.17;34.63
59063;BME280;44851;45.648;9.004;2023-07-29T11:50:10;98732.56;;;33.32;34.27
59063;BME280;44851;45.648;9.004;2023-07-29T11:52:37;98730.34;;;33.20;33.98
59063;BME280;44851;45.648;9.004;2023-07-29T11:55:04;98722.03;;;33.49;35.15
59063;BME280;44851;45.648;9.004;2023-07-29T11:57:31;98718.44;;;33.54;35.04
59063;BME280;44851;45.648;9.004;2023-07-29T11:59:58;98720.03;;;32.65;35.60
59063;BME280;44851;45.648;9.004;2023-07-29T12:02:24;98721.75;;;32.19;36.72
59063;BME280;44851;45.648;9.004;2023-07-29T12:04:51;98725.50;;;32.17;36.16
59063;BME280;44851;45.648;9.004;2023-07-29T12:07:18;98724.94;;;32.21;36.19
59063;BME280;44851;45.648;9.004;2023-07-29T12:09:45;98711.03;;;32.56;36.44
59063;BME280;44851;45.648;9.004;2023-07-29T12:12:11;98714.44;;;32.81;34.81
59063;BME280;44851;45.648;9.004;2023-07-29T12:14:37;98709.63;;;33.15;34.61
59063;BME280;44851;45.648;9.004;2023-07-29T12:17:04;98706.19;;;32.53;35.66
59063;BME280;44851;45.648;9.004;2023-07-29T12:19:37;98717.50;;;32.12;36.97
59063;BME280;44851;45.648;9.004;2023-07-29T12:22:04;98705.25;;;32.20;36.68
59063;BME280;44851;45.648;9.004;2023-07-29T12:24:31;98706.34;;;31.95;36.42
59063;BME280;44851;45.648;9.004;2023-07-29T12:26:57;98700.84;;;31.81;37.20
59063;BME280;44851;45.648;9.004;2023-07-29T12:29:22;98693.72;;;31.67;36.98
59063;BME280;44851;45.648;9.004;2023-07-29T12:31:49;98694.63;;;32.29;36.39
59063;BME280;44851;45.648;9.004;2023-07-29T12:34:22;98689.63;;;32.60;35.69
59063;BME280;44851;45.648;9.004;2023-07-29T12:36:50;98684.03;;;32.94;35.12
59063;BME280;44851;45.648;9.004;2023-07-29T12:39:17;98676.34;;;33.01;34.84
59063;BME280;44851;45.648;9.004;2023-07-29T12:41:43;98675.84;;;32.80;35.72
59063;BME280;44851;45.648;9.004;2023-07-29T12:44:08;98685.69;;;33.09;34.60
59063;BME280;44851;45.648;9.004;2023-07-29T12:46:34;98675.66;;;32.77;34.26
59063;BME280;44851;45.648;9.004;2023-07-29T12:48:59;98677.81;;;32.75;35.10
59063;BME280;44851;45.648;9.004;2023-07-29T12:51:24;98677.44;;;32.01;35.04
59063;BME280;44851;45.648;9.004;2023-07-29T12:53:50;98680.28;;;31.85;36.23
59063;BME280;44851;45.648;9.004;2023-07-29T12:56:15;98677.59;;;31.85;37.39
59063;BME280;44851;45.648;9.004;2023-07-29T12:58:41;98670.94;;;31.78;36.69
59063;BME280;44851;45.648;9.004;2023-07-29T13:01:06;98676.66;;;31.42;37.30
59063;BME280;44851;45.648;9.004;2023-07-29T13:03:32;98668.13;;;31.64;36.87
59063;BME280;44851;45.648;9.004;2023-07-29T13:05:57;98667.09;;;31.84;37.30